| time (UTC) | temp F | wind direction | speed knots | gust knots | rain 1hr in | rain 24hr in | rain mn in | humidity % | barometer mb |
| 20260505124549 | 34 | 5 | 7.8 | 14.8 | 0.04 | 0.20 | 0.04 | 95 | 1012.6 |
| 20260505123051 | 35 | 334 | 7.8 | 13.0 | 0.04 | 0.20 | 0.04 | 95 | 1012.3 |
| 20260505121540 | 36 | 5 | 8.7 | 12.2 | 0.03 | 0.19 | 0.03 | 95 | 1012.4 |
| 20260505120058 | 37 | 22 | 7.8 | 10.4 | 0.01 | 0.17 | 0.01 | 95 | 1012.1 |
| 20260505114544 | 38 | 22 | 5.2 | 9.6 | 0.00 | 0.16 | 0.00 | 95 | 1011.7 |
| 20260505113050 | 39 | 45 | 7.0 | 12.2 | 0.00 | 0.16 | 0.00 | 95 | 1011.4 |
| 20260505111543 | 40 | 56 | 7.0 | 10.4 | 0.00 | 0.16 | 0.00 | 94 | 1011.5 |
| 20260505101544 | 41 | 28 | 7.0 | 10.4 | 0.00 | 0.16 | 0.00 | 92 | 1010.9 |
| 20260505100051 | 41 | 9 | 6.1 | 9.6 | 0.00 | 0.16 | 0.00 | 91 | 1010.9 |
| 20260505094555 | 42 | 28 | 3.5 | 7.0 | 0.00 | 0.16 | 0.00 | 91 | 1011.1 |
| 20260505093052 | 42 | 28 | 4.3 | 7.0 | 0.00 | 0.16 | 0.00 | 91 | 1011.0 |
| 20260505091553 | 44 | 350 | 2.6 | 3.5 | 0.00 | 0.16 | 0.00 | 92 | 1011.0 |
| 20260505090053 | 44 | 5 | 2.6 | 3.5 | 0.00 | 0.16 | 0.00 | 92 | 1010.9 |
| 20260505084545 | 44 | 40 | 1.7 | 3.5 | 0.00 | 0.16 | 0.00 | 91 | 1011.1 |
| 20260505083045 | 44 | 52 | 2.6 | 4.3 | 0.00 | 0.16 | 0.00 | 91 | 1011.1 |
| 20260505081553 | 44 | 63 | 2.6 | 3.5 | 0.00 | 0.16 | 0.00 | 92 | 1011.4 |
| 20260505080050 | 44 | 86 | 1.7 | 3.5 | 0.00 | 0.16 | 0.00 | 92 | 1011.3 |
| 20260505074549 | 44 | 98 | 1.7 | 3.5 | 0.00 | 0.16 | 0.00 | 91 | 1011.6 |
| 20260505073049 | 44 | 96 | 2.6 | 3.5 | 0.00 | 0.16 | 0.00 | 92 | 1011.8 |
| 20260505071555 | 44 | 101 | 1.7 | 2.6 | 0.00 | 0.16 | 0.00 | 92 | 1011.9 |
| 20260505070105 | 44 | 93 | 0.9 | 1.7 | 0.00 | 0.16 | 0.00 | 91 | 1011.9 |
| 20260505064550 | 44 | 90 | 1.7 | 2.6 | 0.00 | 0.16 | 0.00 | 90 | 1012.2 |
| 20260505063041 | 44 | 86 | 3.5 | 5.2 | 0.01 | 0.16 | 0.00 | 91 | 1012.1 |
| 20260505061548 | 45 | 72 | 1.7 | 2.6 | 0.02 | 0.16 | 0.00 | 93 | 1012.1 |
| 20260505060049 | 45 | 82 | 1.7 | 3.5 | 0.03 | 0.16 | 0.00 | 94 | 1012.2 |
| 20260505054554 | 45 | 11 | 0.9 | 1.7 | 0.10 | 0.16 | 0.16 | 94 | 1012.3 |
| 20260505053056 | 45 | 219 | 0.9 | 1.7 | 0.10 | 0.15 | 0.15 | 93 | 1012.4 |
| 20260505051550 | 45 | 213 | 1.7 | 3.5 | 0.10 | 0.14 | 0.14 | 93 | 1012.7 |
| 20260505041546 | 47 | 244 | 5.2 | 9.6 | 0.04 | 0.04 | 0.04 | 85 | 1012.5 |
| 20260505040053 | 50 | 261 | 5.2 | 8.7 | 0.00 | 0.00 | 0.00 | 70 | 1012.3 |
| 20260505034546 | 50 | 249 | 2.6 | 3.5 | 0.00 | 0.00 | 0.00 | 67 | 1011.8 |
| 20260505033048 | 50 | 308 | 1.7 | 3.5 | 0.00 | 0.00 | 0.00 | 67 | 1011.6 |
| 20260505031546 | 50 | 315 | 0.9 | 1.7 | 0.00 | 0.00 | 0.00 | 66 | 1011.5 |
| 20260505030100 | 50 | 327 | 0.9 | 1.7 | 0.00 | 0.00 | 0.00 | 65 | 1011.2 |
| 20260505024551 | 50 | 315 | 1.7 | 2.6 | 0.00 | 0.00 | 0.00 | 63 | 1011.1 |
| 20260505023057 | 51 | 0 | 0.0 | 2.6 | 0.00 | 0.00 | 0.00 | 62 | 1011.1 |
| 20260505021547 | 50 | 311 | 0.9 | 2.6 | 0.00 | 0.00 | 0.00 | 62 | 1010.8 |
| 20260505020047 | 50 | 313 | 2.6 | 5.2 | 0.00 | 0.00 | 0.00 | 63 | 1011.0 |
| 20260505014546 | 51 | 5 | 7.8 | 12.2 | 0.00 | 0.00 | 0.00 | 64 | 1010.6 |
| 20260505013043 | 53 | 348 | 3.5 | 9.6 | 0.00 | 0.00 | 0.00 | 57 | 1010.7 |
| 20260505011554 | 55 | 261 | 7.0 | 10.4 | 0.00 | 0.00 | 0.00 | 50 | 1010.7 |
| 20260505010058 | 56 | 315 | 2.6 | 9.6 | 0.00 | 0.00 | 0.00 | 48 | 1010.2 |
| 20260505004549 | 56 | 317 | 3.5 | 10.4 | 0.00 | 0.00 | 0.00 | 46 | 1010.1 |
| 20260505003050 | 57 | 265 | 5.2 | 12.2 | 0.00 | 0.00 | 0.00 | 43 | 1010.1 |
| 20260505001550 | 59 | 334 | 7.0 | 12.2 | 0.00 | 0.00 | 0.00 | 40 | 1009.7 |
| 20260505000100 | 59 | 293 | 7.8 | 13.9 | 0.00 | 0.00 | 0.00 | 38 | 1009.6 |
| 20260504234550 | 60 | 329 | 4.3 | 13.9 | 0.00 | 0.00 | 0.00 | 36 | 1009.4 |
| 20260504233053 | 60 | 320 | 7.0 | 11.3 | 0.00 | 0.00 | 0.00 | 36 | 1009.4 |
| 20260504231544 | 60 | 329 | 8.7 | 15.6 | 0.00 | 0.00 | 0.00 | 36 | 1009.2 |
| 20260504230052 | 61 | 330 | 11.3 | 18.2 | 0.00 | 0.00 | 0.00 | 36 | 1008.9 |
| 20260504224552 | 61 | 322 | 13.0 | 18.2 | 0.00 | 0.00 | 0.00 | 35 | 1008.9 |
| 20260504223047 | 62 | 336 | 9.6 | 15.6 | 0.00 | 0.00 | 0.00 | 33 | 1008.6 |
| 20260504221554 | 64 | 304 | 7.0 | 14.8 | 0.00 | 0.00 | 0.00 | 30 | 1008.3 |
| 20260504220110 | 65 | 311 | 6.1 | 10.4 | 0.00 | 0.00 | 0.00 | 26 | 1008.1 |
| 20260504214554 | 67 | 258 | 4.3 | 11.3 | 0.00 | 0.00 | 0.00 | 25 | 1008.1 |
| 20260504213059 | 66 | 311 | 5.2 | 12.2 | 0.00 | 0.00 | 0.00 | 25 | 1008.3 |
| 20260504211556 | 68 | 275 | 3.5 | 12.2 | 0.00 | 0.00 | 0.00 | 25 | 1008.3 |
| 20260504210045 | 68 | 240 | 9.6 | 14.8 | 0.00 | 0.00 | 0.00 | 25 | 1008.5 |
| 20260504204552 | 68 | 248 | 7.0 | 11.3 | 0.00 | 0.00 | 0.00 | 24 | 1008.7 |
| 20260504203053 | 67 | 302 | 5.2 | 12.2 | 0.00 | 0.00 | 0.00 | 23 | 1008.9 |
| 20260504201553 | 68 | 317 | 4.3 | 26.9 | 0.00 | 0.00 | 0.00 | 23 | 1008.9 |
| 20260504200050 | 68 | 61 | 1.7 | 7.0 | 0.00 | 0.00 | 0.00 | 25 | 1009.0 |
| 20260504194547 | 65 | 228 | 1.7 | 13.9 | 0.00 | 0.00 | 0.00 | 27 | 1009.2 |
| 20260504193043 | 64 | 248 | 5.2 | 17.4 | 0.00 | 0.00 | 0.00 | 25 | 1009.8 |
| 20260504191556 | 64 | 240 | 8.7 | 20.9 | 0.00 | 0.00 | 0.00 | 25 | 1009.3 |
| 20260504190057 | 65 | 248 | 7.0 | 13.0 | 0.00 | 0.00 | 0.00 | 23 | 1008.9 |
| 20260504184559 | 66 | 290 | 5.2 | 9.6 | 0.00 | 0.00 | 0.00 | 24 | 1009.0 |
| 20260504183050 | 67 | 313 | 3.5 | 7.8 | 0.00 | 0.00 | 0.00 | 24 | 1008.9 |
| 20260504181550 | 67 | 269 | 4.3 | 8.7 | 0.00 | 0.00 | 0.00 | 23 | 1009.1 |
| 20260504180052 | 67 | 216 | 2.6 | 13.0 | 0.00 | 0.00 | 0.00 | 23 | 1009.2 |
| 20260504174547 | 67 | 296 | 6.1 | 11.3 | 0.00 | 0.00 | 0.00 | 22 | 1009.5 |
| 20260504173047 | 67 | 234 | 5.2 | 11.3 | 0.00 | 0.00 | 0.00 | 24 | 1009.9 |
| 20260504171544 | 67 | 238 | 8.7 | 13.9 | 0.00 | 0.00 | 0.00 | 26 | 1010.1 |